createdAt,value
2022-09-17T00:00:29.911Z,1015.14
2022-09-17T00:00:56.141Z,1015.14
2022-09-17T00:01:28.494Z,1015.34
2022-09-17T00:01:52.509Z,1015.24
2022-09-17T00:02:13.523Z,1015.24
2022-09-17T00:02:48.694Z,1015.24
2022-09-17T00:03:20.447Z,1015.34
2022-09-17T00:03:52.186Z,1015.34
2022-09-17T00:04:24.914Z,1015.24
2022-09-17T00:04:59.991Z,1015.24
2022-09-17T00:05:28.341Z,1015.34
2022-09-17T00:05:51.025Z,1015.24
2022-09-17T00:06:13.671Z,1015.24
2022-09-17T00:06:48.304Z,1015.24
2022-09-17T00:07:20.376Z,1015.24
2022-09-17T00:07:52.319Z,1015.24
2022-09-17T00:08:24.838Z,1015.34
2022-09-17T00:08:56.811Z,1015.34
2022-09-17T00:09:28.812Z,1015.14
2022-09-17T00:09:51.398Z,1015.44
2022-09-17T00:10:13.821Z,1015.44
2022-09-17T00:10:49.417Z,1015.44
2022-09-17T00:11:20.598Z,1015.44
2022-09-17T00:11:52.329Z,1015.44
2022-09-17T00:12:24.057Z,1015.44
2022-09-17T00:12:57.581Z,1015.44
2022-09-17T00:13:28.561Z,1015.14
2022-09-17T00:13:51.524Z,1015.44
2022-09-17T00:14:14.216Z,1015.44
2022-09-17T00:14:48.175Z,1015.44
2022-09-17T00:15:20.561Z,1015.51
2022-09-17T00:15:52.628Z,1015.51
2022-09-17T00:16:24.019Z,1015.44
2022-09-17T00:17:01.220Z,1015.44
2022-09-17T00:17:28.607Z,1015.34
2022-09-17T00:17:51.234Z,1015.34
2022-09-17T00:18:13.661Z,1015.34
2022-09-17T00:18:49.249Z,1015.34
2022-09-17T00:19:20.177Z,1015.34
2022-09-17T00:19:52.543Z,1015.34
2022-09-17T00:20:24.642Z,1015.44
2022-09-17T00:20:57.046Z,1015.44
2022-09-17T00:21:28.320Z,1015.24
2022-09-17T00:21:50.935Z,1015.34
2022-09-17T00:22:13.927Z,1015.34
2022-09-17T00:22:48.831Z,1015.34
2022-09-17T00:23:20.479Z,1015.51
2022-09-17T00:23:52.522Z,1015.51
2022-09-17T00:24:24.621Z,1015.51
2022-09-17T00:24:56.787Z,1015.51
2022-09-17T00:25:28.393Z,1015.61
2022-09-17T00:25:50.967Z,1015.51
2022-09-17T00:26:13.370Z,1015.51
2022-09-17T00:26:48.236Z,1015.51
2022-09-17T00:27:20.232Z,1015.34
2022-09-17T00:27:52.347Z,1015.34
2022-09-17T00:28:24.122Z,1015.51
2022-09-17T00:28:56.314Z,1015.51
2022-09-17T00:29:28.296Z,1015.51
2022-09-17T00:29:50.903Z,1015.71
2022-09-17T00:30:14.749Z,1015.71
2022-09-17T00:30:48.154Z,1015.71
2022-09-17T00:31:20.384Z,1015.61
2022-09-17T00:31:52.169Z,1015.61
2022-09-17T00:32:24.152Z,1015.71
2022-09-17T00:32:56.536Z,1015.71
2022-09-17T00:33:28.721Z,1015.51
2022-09-17T00:33:51.380Z,1015.71
2022-09-17T00:34:13.689Z,1015.71
2022-09-17T00:34:48.662Z,1015.71
2022-09-17T00:35:21.316Z,1015.51
2022-09-17T00:35:52.292Z,1015.51
2022-09-17T00:36:24.593Z,1015.51
2022-09-17T00:36:56.786Z,1015.51
2022-09-17T00:37:28.198Z,1015.61
2022-09-17T00:37:52.435Z,1015.61
2022-09-17T00:38:14.022Z,1015.61
2022-09-17T00:38:48.173Z,1015.61
2022-09-17T00:39:20.243Z,1015.51
2022-09-17T00:39:52.161Z,1015.51
2022-09-17T00:40:25.882Z,1015.51
2022-09-17T00:40:56.809Z,1015.51
2022-09-17T00:41:28.160Z,1015.44
2022-09-17T00:41:52.782Z,1015.34
2022-09-17T00:42:14.043Z,1015.34
2022-09-17T00:42:49.716Z,1015.34
2022-09-17T00:43:20.471Z,1015.61
2022-09-17T00:43:52.670Z,1015.61
2022-09-17T00:44:24.066Z,1015.44
2022-09-17T00:44:56.266Z,1015.44
2022-09-17T00:45:28.238Z,1015.51
2022-09-17T00:45:50.907Z,1015.44
2022-09-17T00:46:14.716Z,1015.44
2022-09-17T00:46:48.261Z,1015.44
2022-09-17T00:47:20.595Z,1015.51
2022-09-17T00:47:52.860Z,1015.51
2022-09-17T00:48:24.517Z,1015.71
2022-09-17T00:48:56.223Z,1015.71
2022-09-17T00:49:29.044Z,1015.61
2022-09-17T00:49:51.588Z,1015.34
2022-09-17T00:50:14.216Z,1015.34
2022-09-17T00:50:49.120Z,1015.34
2022-09-17T00:51:21.062Z,1015.51
2022-09-17T00:51:55.953Z,1015.51
2022-09-17T00:52:24.075Z,1015.44
2022-09-17T00:52:57.167Z,1015.44
2022-09-17T00:53:28.966Z,1015.51
2022-09-17T00:53:51.555Z,1015.71
2022-09-17T00:54:15.933Z,1015.71
2022-09-17T00:54:48.274Z,1015.71
2022-09-17T00:55:21.038Z,1015.44
2022-09-17T00:55:52.284Z,1015.44
2022-09-17T00:56:24.619Z,1015.51
2022-09-17T00:56:56.796Z,1015.51
2022-09-17T00:57:28.553Z,1015.44
2022-09-17T00:57:51.247Z,1015.51
2022-09-17T00:58:14.246Z,1015.51
2022-09-17T00:58:48.690Z,1015.51
2022-09-17T00:59:20.576Z,1015.51
2022-09-17T00:59:53.008Z,1015.51
2022-09-17T01:00:29.696Z,1015.51
2022-09-17T01:00:56.616Z,1015.51
2022-09-17T01:01:28.842Z,1015.44
2022-09-17T01:01:51.701Z,1015.51
2022-09-17T01:02:14.208Z,1015.51
2022-09-17T01:02:48.515Z,1015.51
2022-09-17T01:03:20.901Z,1015.34
2022-09-17T01:03:52.331Z,1015.34
2022-09-17T01:04:29.503Z,1015.44
2022-09-17T01:04:51.843Z,1015.44
2022-09-17T01:05:24.069Z,1015.51
2022-09-17T01:05:55.773Z,1015.51
2022-09-17T01:06:32.345Z,1015.51
2022-09-17T01:06:55.444Z,1015.51
2022-09-17T01:07:17.976Z,1015.51
2022-09-17T01:07:52.165Z,1015.51
2022-09-17T01:08:29.616Z,1015.71
2022-09-17T01:08:56.191Z,1015.71
2022-09-17T01:09:29.674Z,1015.51
2022-09-17T01:09:50.896Z,1015.51
2022-09-17T01:10:13.287Z,1015.51
2022-09-17T01:10:48.568Z,1015.51
2022-09-17T01:11:21.695Z,1015.51
2022-09-17T01:11:52.239Z,1015.51
2022-09-17T01:12:29.540Z,1015.51
2022-09-17T01:12:56.539Z,1015.51
2022-09-17T01:13:28.336Z,1015.51
2022-09-17T01:13:50.933Z,1015.51
2022-09-17T01:14:13.269Z,1015.51
2022-09-17T01:14:48.111Z,1015.51
2022-09-17T01:15:20.088Z,1015.51
2022-09-17T01:15:52.177Z,1015.51
2022-09-17T01:16:24.219Z,1015.61
2022-09-17T01:16:56.130Z,1015.61
2022-09-17T01:17:28.233Z,1015.61
2022-09-17T01:17:51.020Z,1015.51
2022-09-17T01:18:13.252Z,1015.51
2022-09-17T01:18:42.070Z,1015.51
2022-09-17T01:19:20.931Z,1015.61
2022-09-17T01:19:53.110Z,1015.61
2022-09-17T01:20:24.776Z,1015.71
2022-09-17T01:20:57.892Z,1015.71
2022-09-17T01:21:28.570Z,1015.51
2022-09-17T01:21:51.215Z,1015.61
2022-09-17T01:22:14.058Z,1015.61
2022-09-17T01:22:48.005Z,1015.61
2022-09-17T01:23:20.253Z,1015.44
2022-09-17T01:23:52.141Z,1015.44
2022-09-17T01:24:24.246Z,1015.61
2022-09-17T01:24:56.173Z,1015.61
2022-09-17T01:25:35.149Z,1015.71
2022-09-17T01:25:57.524Z,1015.61
2022-09-17T01:26:32.383Z,1015.61
2022-09-17T01:26:55.476Z,1015.81
2022-09-17T01:27:17.835Z,1015.81
2022-09-17T01:27:52.129Z,1015.81
2022-09-17T01:28:24.103Z,1015.61
2022-09-17T01:28:56.154Z,1015.61
2022-09-17T01:29:28.049Z,1015.51
2022-09-17T01:29:50.955Z,1015.81
2022-09-17T01:30:13.455Z,1015.81
2022-09-17T01:30:48.165Z,1015.81
2022-09-17T01:31:20.224Z,1015.71
2022-09-17T01:31:52.185Z,1015.71
2022-09-17T01:32:24.030Z,1015.61
2022-09-17T01:32:56.168Z,1015.61
2022-09-17T01:33:28.010Z,1015.81
2022-09-17T01:33:50.856Z,1015.71
2022-09-17T01:34:13.561Z,1015.71
2022-09-17T01:34:48.290Z,1015.71
2022-09-17T01:35:20.128Z,1015.61
2022-09-17T01:35:51.998Z,1015.61
2022-09-17T01:36:24.415Z,1015.71
2022-09-17T01:36:55.998Z,1015.71
2022-09-17T01:37:30.617Z,1015.81
2022-09-17T01:37:51.015Z,1015.71
2022-09-17T01:38:14.120Z,1015.71
2022-09-17T01:38:48.287Z,1015.71
2022-09-17T01:39:20.192Z,1015.71
2022-09-17T01:39:52.177Z,1015.71
2022-09-17T01:40:24.372Z,1015.71
2022-09-17T01:40:56.140Z,1015.71
2022-09-17T01:41:28.168Z,1015.71
2022-09-17T01:41:51.122Z,1015.61
2022-09-17T01:42:14.851Z,1015.61
2022-09-17T01:42:48.276Z,1015.61
2022-09-17T01:43:20.148Z,1015.51
2022-09-17T01:43:52.029Z,1015.51
2022-09-17T01:44:24.017Z,1015.71
2022-09-17T01:44:56.257Z,1015.71
2022-09-17T01:45:27.974Z,1015.51
2022-09-17T01:45:51.062Z,1015.71
2022-09-17T01:46:15.569Z,1015.71
2022-09-17T01:46:48.183Z,1015.71
2022-09-17T01:47:21.187Z,1015.92
2022-09-17T01:47:52.255Z,1015.92
2022-09-17T01:48:23.967Z,1015.81
2022-09-17T01:48:56.265Z,1015.81
2022-09-17T01:49:28.132Z,1015.81
2022-09-17T01:49:51.435Z,1015.71
2022-09-17T01:50:15.904Z,1015.71
2022-09-17T01:50:48.098Z,1015.71
2022-09-17T01:51:20.294Z,1015.71
2022-09-17T01:51:52.195Z,1015.71
2022-09-17T01:52:24.232Z,1015.92
2022-09-17T01:52:56.059Z,1015.92
2022-09-17T01:53:28.510Z,1015.92
2022-09-17T01:53:50.747Z,1015.71
2022-09-17T01:54:13.103Z,1015.71
2022-09-17T01:54:48.082Z,1015.71
2022-09-17T01:55:20.199Z,1015.61
2022-09-17T01:55:52.067Z,1015.61
2022-09-17T01:56:24.095Z,1015.81
2022-09-17T01:56:56.150Z,1015.81
2022-09-17T01:57:28.026Z,1015.92
2022-09-17T01:57:50.938Z,1015.71
2022-09-17T01:58:13.543Z,1015.71
2022-09-17T01:58:48.252Z,1015.71
2022-09-17T01:59:20.163Z,1015.92
2022-09-17T01:59:52.293Z,1015.92
2022-09-17T02:00:24.108Z,1015.92
2022-09-17T02:00:56.382Z,1015.92
2022-09-17T02:01:28.207Z,1015.81
2022-09-17T02:01:54.570Z,1015.71
2022-09-17T02:02:13.332Z,1015.71
2022-09-17T02:02:48.218Z,1015.71
2022-09-17T02:03:20.904Z,1015.92
2022-09-17T02:03:52.135Z,1015.92
2022-09-17T02:04:24.196Z,1015.71
2022-09-17T02:04:56.159Z,1015.71
2022-09-17T02:05:28.138Z,1015.92
2022-09-17T02:05:52.763Z,1015.92
2022-09-17T02:06:15.057Z,1015.92
2022-09-17T02:06:48.155Z,1015.92
2022-09-17T02:07:21.095Z,1015.81
2022-09-17T02:07:52.187Z,1015.81
2022-09-17T02:08:25.769Z,1015.81
2022-09-17T02:08:55.997Z,1015.81
2022-09-17T02:09:28.153Z,1015.81
2022-09-17T02:09:50.895Z,1015.61
2022-09-17T02:10:13.112Z,1015.61
2022-09-17T02:10:47.998Z,1015.61
2022-09-17T02:11:21.835Z,1015.81
2022-09-17T02:11:52.130Z,1015.81
2022-09-17T02:12:24.316Z,1015.71
2022-09-17T02:12:56.165Z,1015.71
2022-09-17T02:13:28.270Z,1015.61
2022-09-17T02:13:51.187Z,1016.02
2022-09-17T02:14:13.378Z,1016.02
2022-09-17T02:14:47.995Z,1016.02
2022-09-17T02:15:22.224Z,1015.81
2022-09-17T02:15:52.116Z,1015.81
2022-09-17T02:16:24.139Z,1015.71
2022-09-17T02:16:56.130Z,1015.71
2022-09-17T02:17:27.997Z,1015.92
2022-09-17T02:17:50.655Z,1015.71
2022-09-17T02:18:12.950Z,1015.71
2022-09-17T02:18:48.183Z,1015.71
2022-09-17T02:19:22.550Z,1015.81
2022-09-17T02:19:52.044Z,1015.81
2022-09-17T02:20:24.182Z,1015.51
2022-09-17T02:20:56.123Z,1015.51
2022-09-17T02:21:28.025Z,1015.71
2022-09-17T02:21:50.874Z,1015.71
2022-09-17T02:22:13.200Z,1015.71
2022-09-17T02:22:48.039Z,1015.71
2022-09-17T02:23:20.047Z,1015.81
2022-09-17T02:23:52.084Z,1015.81
2022-09-17T02:24:24.147Z,1015.81
2022-09-17T02:24:56.129Z,1015.81
2022-09-17T02:25:28.083Z,1015.92
2022-09-17T02:25:50.744Z,1015.71
2022-09-17T02:26:13.087Z,1015.71
2022-09-17T02:26:48.064Z,1015.71
2022-09-17T02:27:20.213Z,1015.81
2022-09-17T02:27:52.194Z,1015.81
2022-09-17T02:28:24.374Z,1015.71
2022-09-17T02:28:55.963Z,1015.71
2022-09-17T02:29:28.071Z,1015.81
2022-09-17T02:29:51.455Z,1015.81
2022-09-17T02:30:13.776Z,1015.81
2022-09-17T02:30:48.069Z,1015.81
2022-09-17T02:31:20.264Z,1015.92
2022-09-17T02:31:52.605Z,1015.92
2022-09-17T02:32:24.609Z,1015.81
2022-09-17T02:32:55.978Z,1015.81
2022-09-17T02:33:28.148Z,1015.92
2022-09-17T02:33:50.829Z,1015.92
2022-09-17T02:34:13.303Z,1015.92
2022-09-17T02:34:48.179Z,1015.92
2022-09-17T02:35:20.077Z,1015.71
2022-09-17T02:35:52.066Z,1015.71
2022-09-17T02:36:25.229Z,1015.71
2022-09-17T02:36:56.073Z,1015.71
2022-09-17T02:37:28.117Z,1015.71
2022-09-17T02:37:53.897Z,1015.81
2022-09-17T02:38:13.776Z,1015.81
2022-09-17T02:38:47.985Z,1015.81
2022-09-17T02:39:20.088Z,1015.92
2022-09-17T02:39:52.156Z,1015.92
2022-09-17T02:40:25.816Z,1015.92
2022-09-17T02:40:56.051Z,1015.92
2022-09-17T02:41:28.471Z,1015.92
2022-09-17T02:41:50.787Z,1016.02
2022-09-17T02:42:13.081Z,1016.02
2022-09-17T02:42:48.079Z,1016.02
2022-09-17T02:43:20.149Z,1015.92
2022-09-17T02:43:52.253Z,1015.92
2022-09-17T02:44:26.094Z,1015.81
2022-09-17T02:44:56.285Z,1015.81
2022-09-17T02:45:27.964Z,1016.02
2022-09-17T02:45:50.854Z,1015.92
2022-09-17T02:46:13.305Z,1015.92
2022-09-17T02:46:48.218Z,1015.92
2022-09-17T02:47:20.014Z,1015.71
2022-09-17T02:47:52.196Z,1015.71
2022-09-17T02:48:26.512Z,1015.71
2022-09-17T02:48:56.200Z,1015.71
2022-09-17T02:49:27.966Z,1015.92
2022-09-17T02:49:50.748Z,1015.92
2022-09-17T02:50:13.164Z,1015.92
2022-09-17T02:50:48.177Z,1015.92
2022-09-17T02:51:20.065Z,1016.22
2022-09-17T02:51:51.985Z,1016.22
2022-09-17T02:52:24.052Z,1015.92
2022-09-17T02:52:56.071Z,1015.92
2022-09-17T02:53:29.481Z,1015.92
2022-09-17T02:53:50.660Z,1015.92
2022-09-17T02:54:13.170Z,1015.92
2022-09-17T02:54:48.017Z,1015.92
2022-09-17T02:55:20.140Z,1015.92
2022-09-17T02:55:52.039Z,1015.92
2022-09-17T02:56:24.058Z,1016.12
2022-09-17T02:56:56.112Z,1016.12
2022-09-17T02:57:28.116Z,1015.92
2022-09-17T02:57:51.082Z,1015.81
2022-09-17T02:58:13.557Z,1015.81
2022-09-17T02:58:48.009Z,1015.81
2022-09-17T02:59:20.216Z,1016.02
2022-09-17T02:59:52.095Z,1016.02
2022-09-17T03:00:24.166Z,1015.81
2022-09-17T03:00:55.997Z,1015.81
2022-09-17T03:01:28.366Z,1016.02
2022-09-17T03:01:52.339Z,1016.22
2022-09-17T03:02:14.655Z,1016.22
2022-09-17T03:02:53.447Z,1016.22
2022-09-17T03:03:20.112Z,1015.81
2022-09-17T03:03:52.191Z,1015.81
2022-09-17T03:04:23.956Z,1016.02
2022-09-17T03:04:56.218Z,1016.02
2022-09-17T03:05:28.736Z,1016.12
2022-09-17T03:05:51.520Z,1016.12
2022-09-17T03:06:13.919Z,1016.12
2022-09-17T03:06:48.438Z,1016.12
2022-09-17T03:07:19.996Z,1015.92
2022-09-17T03:07:52.086Z,1015.92
2022-09-17T03:08:29.582Z,1015.92
2022-09-17T03:08:56.285Z,1015.92
2022-09-17T03:09:29.337Z,1016.12
2022-09-17T03:09:50.621Z,1016.02
2022-09-17T03:10:12.891Z,1016.02
2022-09-17T03:10:48.248Z,1016.02
2022-09-17T03:11:20.155Z,1015.92
2022-09-17T03:11:52.023Z,1015.92
2022-09-17T03:12:24.308Z,1016.02
2022-09-17T03:12:56.025Z,1016.02
2022-09-17T03:13:30.235Z,1016.02
2022-09-17T03:13:51.451Z,1015.92
2022-09-17T03:14:13.484Z,1015.92
2022-09-17T03:14:48.031Z,1015.92
2022-09-17T03:15:20.203Z,1015.81
2022-09-17T03:15:52.104Z,1015.81
2022-09-17T03:16:23.996Z,1015.81
2022-09-17T03:16:56.055Z,1015.81
2022-09-17T03:17:31.189Z,1016.02
2022-09-17T03:17:53.411Z,1016.02
2022-09-17T03:18:13.156Z,1016.02
2022-09-17T03:18:48.047Z,1016.02
2022-09-17T03:19:19.954Z,1015.92
2022-09-17T03:19:52.071Z,1015.92
2022-09-17T03:20:24.020Z,1015.71
2022-09-17T03:20:56.046Z,1015.71
2022-09-17T03:21:28.042Z,1016.02
2022-09-17T03:21:51.133Z,1016.02
2022-09-17T03:22:13.398Z,1016.02
2022-09-17T03:22:48.130Z,1016.02
2022-09-17T03:23:20.198Z,1015.92
2022-09-17T03:23:52.049Z,1015.92
2022-09-17T03:24:23.946Z,1015.81
2022-09-17T03:24:56.113Z,1015.81
2022-09-17T03:25:27.952Z,1015.92
2022-09-17T03:25:50.706Z,1015.92
2022-09-17T03:26:13.154Z,1015.92
2022-09-17T03:26:48.024Z,1015.92
2022-09-17T03:27:20.074Z,1015.81
2022-09-17T03:27:51.956Z,1015.81
2022-09-17T03:28:24.066Z,1016.02
2022-09-17T03:28:55.963Z,1016.02
2022-09-17T03:29:28.089Z,1015.92
2022-09-17T03:29:50.853Z,1015.81
2022-09-17T03:30:13.161Z,1015.81
2022-09-17T03:30:47.969Z,1015.81
2022-09-17T03:31:20.229Z,1016.02
2022-09-17T03:31:52.013Z,1016.02
2022-09-17T03:32:23.994Z,1016.32
2022-09-17T03:32:55.878Z,1016.32
2022-09-17T03:33:27.887Z,1016.02
2022-09-17T03:33:50.700Z,1015.92
2022-09-17T03:34:12.988Z,1015.92
2022-09-17T03:34:48.163Z,1015.92
2022-09-17T03:35:20.041Z,1016.02
2022-09-17T03:35:52.321Z,1016.02
2022-09-17T03:36:23.873Z,1016.02
2022-09-17T03:36:55.985Z,1016.02
2022-09-17T03:37:32.219Z,1015.92
2022-09-17T03:37:50.838Z,1016.12
2022-09-17T03:38:13.176Z,1016.12
2022-09-17T03:38:48.181Z,1016.12
2022-09-17T03:39:20.005Z,1015.92
2022-09-17T03:39:51.984Z,1015.92
2022-09-17T03:40:24.131Z,1015.92
2022-09-17T03:40:55.997Z,1015.92
2022-09-17T03:41:27.862Z,1016.02
2022-09-17T03:41:50.771Z,1015.92
2022-09-17T03:42:13.169Z,1015.92
2022-09-17T03:42:47.976Z,1015.92
2022-09-17T03:43:20.106Z,1016.12
2022-09-17T03:43:52.157Z,1016.12
2022-09-17T03:44:24.151Z,1016.12
2022-09-17T03:44:55.900Z,1016.12
2022-09-17T03:45:28.063Z,1016.02
2022-09-17T03:45:50.762Z,1016.02
2022-09-17T03:46:13.130Z,1016.02
2022-09-17T03:46:48.319Z,1016.02
2022-09-17T03:47:19.923Z,1016.12
2022-09-17T03:47:51.981Z,1016.12
2022-09-17T03:48:23.865Z,1016.12
2022-09-17T03:48:56.185Z,1016.12
2022-09-17T03:49:28.141Z,1016.22
2022-09-17T03:49:51.659Z,1016.02
2022-09-17T03:50:14.063Z,1016.02
2022-09-17T03:50:47.917Z,1016.02
2022-09-17T03:51:19.913Z,1016.22
2022-09-17T03:51:52.029Z,1016.22
2022-09-17T03:52:24.047Z,1016.02
2022-09-17T03:52:56.040Z,1016.02
2022-09-17T03:53:27.940Z,1016.12
2022-09-17T03:53:50.669Z,1015.92
2022-09-17T03:54:13.049Z,1015.92
2022-09-17T03:54:48.208Z,1015.92
2022-09-17T03:55:20.296Z,1016.12
2022-09-17T03:55:52.193Z,1016.12
2022-09-17T03:56:23.966Z,1016.02
2022-09-17T03:56:55.950Z,1016.02
2022-09-17T03:57:28.155Z,1016.22
2022-09-17T03:57:50.862Z,1016.02
2022-09-17T03:58:13.244Z,1016.02
2022-09-17T03:58:48.005Z,1016.02
2022-09-17T03:59:20.230Z,1016.12
2022-09-17T03:59:52.018Z,1016.12
2022-09-17T04:00:24.024Z,1016.22
2022-09-17T04:00:56.142Z,1016.22
2022-09-17T04:01:28.104Z,1016.02
2022-09-17T04:01:52.431Z,1016.42
2022-09-17T04:02:13.144Z,1016.42
2022-09-17T04:02:48.027Z,1016.42
2022-09-17T04:03:20.050Z,1016.22
2022-09-17T04:03:52.031Z,1016.22
2022-09-17T04:04:24.155Z,1016.32
2022-09-17T04:04:55.966Z,1016.32
2022-09-17T04:05:27.891Z,1016.32
2022-09-17T04:05:51.315Z,1016.22
2022-09-17T04:06:13.634Z,1016.22
2022-09-17T04:06:48.045Z,1016.22
2022-09-17T04:07:19.950Z,1016.42
2022-09-17T04:07:52.028Z,1016.42
2022-09-17T04:08:24.350Z,1016.32
2022-09-17T04:08:56.161Z,1016.32
2022-09-17T04:09:28.029Z,1016.52
2022-09-17T04:09:50.682Z,1016.42
2022-09-17T04:10:13.114Z,1016.42
2022-09-17T04:10:48.003Z,1016.42
2022-09-17T04:11:19.953Z,1016.22
2022-09-17T04:11:52.232Z,1016.22
2022-09-17T04:12:24.037Z,1016.32
2022-09-17T04:12:56.043Z,1016.32
2022-09-17T04:13:27.860Z,1016.52
2022-09-17T04:13:51.183Z,1016.32
2022-09-17T04:14:13.413Z,1016.32
2022-09-17T04:14:48.049Z,1016.32
2022-09-17T04:15:20.138Z,1016.32
2022-09-17T04:15:52.073Z,1016.32
2022-09-17T04:16:24.113Z,1016.32
2022-09-17T04:16:55.929Z,1016.32
2022-09-17T04:17:27.949Z,1016.22
2022-09-17T04:17:51.262Z,1016.22
2022-09-17T04:18:13.582Z,1016.22
2022-09-17T04:18:47.920Z,1016.22
2022-09-17T04:19:20.169Z,1016.32
2022-09-17T04:19:52.044Z,1016.32
2022-09-17T04:20:24.015Z,1016.52
2022-09-17T04:20:55.885Z,1016.52
2022-09-17T04:21:28.011Z,1016.32
2022-09-17T04:21:51.370Z,1016.52
2022-09-17T04:22:13.805Z,1016.52
2022-09-17T04:22:47.865Z,1016.52
2022-09-17T04:23:19.851Z,1016.32
2022-09-17T04:23:51.923Z,1016.32
2022-09-17T04:24:24.008Z,1016.52
2022-09-17T04:24:55.953Z,1016.52
2022-09-17T04:25:27.848Z,1016.32
2022-09-17T04:25:51.136Z,1016.32
2022-09-17T04:26:13.475Z,1016.32
2022-09-17T04:26:47.969Z,1016.32
2022-09-17T04:27:19.971Z,1016.42
2022-09-17T04:27:52.100Z,1016.42
2022-09-17T04:28:24.226Z,1016.32
2022-09-17T04:28:56.193Z,1016.32
2022-09-17T04:29:28.133Z,1016.42
2022-09-17T04:29:51.259Z,1016.42
2022-09-17T04:30:13.757Z,1016.42
2022-09-17T04:30:48.004Z,1016.42
2022-09-17T04:31:20.121Z,1016.32
2022-09-17T04:31:52.068Z,1016.32
2022-09-17T04:32:23.928Z,1016.22
2022-09-17T04:32:55.861Z,1016.22
2022-09-17T04:33:27.997Z,1016.32
2022-09-17T04:33:50.573Z,1016.32
2022-09-17T04:34:12.941Z,1016.32
2022-09-17T04:34:47.876Z,1016.32
2022-09-17T04:35:20.048Z,1016.52
2022-09-17T04:35:51.865Z,1016.52
2022-09-17T04:36:23.950Z,1016.42
2022-09-17T04:36:55.874Z,1016.42
2022-09-17T04:37:27.901Z,1016.42
2022-09-17T04:37:52.695Z,1016.42
2022-09-17T04:38:13.469Z,1016.42
2022-09-17T04:38:47.975Z,1016.42
2022-09-17T04:39:19.849Z,1016.63
2022-09-17T04:39:52.106Z,1016.63
2022-09-17T04:40:24.297Z,1016.32
2022-09-17T04:40:56.018Z,1016.32
2022-09-17T04:41:27.987Z,1016.52
2022-09-17T04:41:50.676Z,1016.42
2022-09-17T04:42:12.929Z,1016.42
2022-09-17T04:42:48.055Z,1016.42
2022-09-17T04:43:20.008Z,1016.42
2022-09-17T04:43:51.934Z,1016.42
2022-09-17T04:44:23.944Z,1016.42
2022-09-17T04:44:56.100Z,1016.42
2022-09-17T04:45:27.958Z,1016.32
2022-09-17T04:45:50.727Z,1016.32
2022-09-17T04:46:13.238Z,1016.32
2022-09-17T04:46:47.924Z,1016.32
2022-09-17T04:47:20.123Z,1016.52
2022-09-17T04:47:52.203Z,1016.52
2022-09-17T04:48:23.892Z,1016.42
2022-09-17T04:48:55.920Z,1016.42
2022-09-17T04:49:28.231Z,1016.32
2022-09-17T04:49:50.749Z,1016.42
2022-09-17T04:50:13.090Z,1016.42
2022-09-17T04:50:48.097Z,1016.42
2022-09-17T04:51:20.168Z,1016.63
2022-09-17T04:51:51.878Z,1016.63
2022-09-17T04:52:27.637Z,1016.42
2022-09-17T04:52:56.120Z,1016.42
2022-09-17T04:53:28.019Z,1016.52
2022-09-17T04:53:50.960Z,1016.42
2022-09-17T04:54:13.074Z,1016.42
2022-09-17T04:54:48.024Z,1016.42
2022-09-17T04:55:19.954Z,1016.42
2022-09-17T04:55:52.124Z,1016.42
2022-09-17T04:56:24.246Z,1016.32
2022-09-17T04:56:56.117Z,1016.32
2022-09-17T04:57:27.986Z,1016.63
2022-09-17T04:57:51.076Z,1016.42
2022-09-17T04:58:13.071Z,1016.42
2022-09-17T04:58:48.331Z,1016.42
2022-09-17T04:59:20.114Z,1016.42
2022-09-17T04:59:52.074Z,1016.42
2022-09-17T05:00:24.043Z,1016.32
2022-09-17T05:00:56.065Z,1016.32
2022-09-17T05:01:28.279Z,1016.52
2022-09-17T05:01:56.500Z,1016.52
2022-09-17T05:02:13.421Z,1016.52
2022-09-17T05:02:47.933Z,1016.52
2022-09-17T05:03:20.163Z,1016.32
2022-09-17T05:03:51.970Z,1016.32
2022-09-17T05:04:24.175Z,1016.63
2022-09-17T05:04:56.040Z,1016.63
2022-09-17T05:05:28.132Z,1016.63
2022-09-17T05:05:51.092Z,1016.42
2022-09-17T05:06:13.413Z,1016.42
2022-09-17T05:06:48.012Z,1016.42
2022-09-17T05:07:20.082Z,1016.52
2022-09-17T05:07:52.152Z,1016.52
2022-09-17T05:08:24.386Z,1016.42
2022-09-17T05:08:56.025Z,1016.42
2022-09-17T05:09:28.053Z,1016.73
2022-09-17T05:09:50.771Z,1016.63
2022-09-17T05:10:13.113Z,1016.63
2022-09-17T05:10:48.237Z,1016.63
2022-09-17T05:11:19.971Z,1016.63
2022-09-17T05:11:52.139Z,1016.63
2022-09-17T05:12:23.981Z,1016.42
2022-09-17T05:12:56.327Z,1016.42
2022-09-17T05:13:27.941Z,1016.42
2022-09-17T05:13:51.307Z,1016.63
2022-09-17T05:14:13.027Z,1016.63
2022-09-17T05:14:48.829Z,1016.63
2022-09-17T05:15:20.138Z,1016.52
2022-09-17T05:15:52.118Z,1016.52
2022-09-17T05:16:23.958Z,1016.73
2022-09-17T05:16:56.212Z,1016.73
2022-09-17T05:17:28.115Z,1016.42
2022-09-17T05:17:51.898Z,1016.42
2022-09-17T05:18:14.329Z,1016.42
2022-09-17T05:18:49.167Z,1016.42
2022-09-17T05:19:20.450Z,1016.83
2022-09-17T05:19:52.007Z,1016.83
2022-09-17T05:20:24.225Z,1016.63
2022-09-17T05:20:55.895Z,1016.63
2022-09-17T05:21:27.914Z,1016.63
2022-09-17T05:21:50.708Z,1016.52
2022-09-17T05:22:13.017Z,1016.52
2022-09-17T05:22:49.831Z,1016.52
2022-09-17T05:23:19.984Z,1016.63
2022-09-17T05:23:52.155Z,1016.63
2022-09-17T05:24:24.251Z,1016.63
2022-09-17T05:24:56.074Z,1016.63
2022-09-17T05:25:27.953Z,1016.63
2022-09-17T05:25:51.293Z,1016.83
2022-09-17T05:26:13.569Z,1016.83
2022-09-17T05:26:50.484Z,1016.83
2022-09-17T05:27:19.907Z,1016.83
2022-09-17T05:27:52.341Z,1016.83
2022-09-17T05:28:24.018Z,1016.93
2022-09-17T05:28:56.157Z,1016.93
2022-09-17T05:29:28.107Z,1016.73
2022-09-17T05:29:51.367Z,1016.63
2022-09-17T05:30:13.627Z,1016.63
2022-09-17T05:30:48.121Z,1016.63
2022-09-17T05:31:20.152Z,1016.93
2022-09-17T05:31:52.169Z,1016.93
2022-09-17T05:32:23.978Z,1016.83
2022-09-17T05:32:56.365Z,1016.83
2022-09-17T05:33:28.108Z,1016.63
2022-09-17T05:33:51.753Z,1016.63
2022-09-17T05:34:13.313Z,1016.63
2022-09-17T05:34:48.091Z,1016.63
2022-09-17T05:35:21.581Z,1017.03
2022-09-17T05:35:52.081Z,1017.03
2022-09-17T05:36:24.093Z,1016.63
2022-09-17T05:36:56.118Z,1016.63
2022-09-17T05:37:28.031Z,1016.83
2022-09-17T05:37:53.840Z,1016.63
2022-09-17T05:38:13.022Z,1016.63
2022-09-17T05:38:48.032Z,1016.63
2022-09-17T05:39:20.048Z,1016.73
2022-09-17T05:39:53.010Z,1016.73
2022-09-17T05:40:26.760Z,1016.63
2022-09-17T05:40:55.913Z,1016.63
2022-09-17T05:41:28.102Z,1016.83
2022-09-17T05:41:52.742Z,1016.73
2022-09-17T05:42:13.277Z,1016.73
2022-09-17T05:42:48.108Z,1016.73
2022-09-17T05:43:20.343Z,1016.63
2022-09-17T05:43:52.980Z,1016.63
2022-09-17T05:44:24.220Z,1016.83
2022-09-17T05:44:56.088Z,1016.83
2022-09-17T05:45:28.493Z,1016.73
2022-09-17T05:45:53.934Z,1016.73
2022-09-17T05:46:13.886Z,1016.73
2022-09-17T05:46:48.131Z,1016.73
2022-09-17T05:47:20.003Z,1016.73
2022-09-17T05:47:54.005Z,1016.73
2022-09-17T05:48:23.931Z,1016.63
2022-09-17T05:48:56.250Z,1016.63
2022-09-17T05:49:28.057Z,1016.52
2022-09-17T05:49:54.304Z,1016.83
2022-09-17T05:50:13.545Z,1016.83
2022-09-17T05:50:48.028Z,1016.83
2022-09-17T05:51:20.128Z,1016.63
2022-09-17T05:51:54.425Z,1016.63
2022-09-17T05:52:24.041Z,1016.93
2022-09-17T05:52:56.154Z,1016.93
2022-09-17T05:53:28.136Z,1016.83
2022-09-17T05:53:50.573Z,1016.83
2022-09-17T05:54:13.140Z,1016.83
2022-09-17T05:54:47.945Z,1016.83
2022-09-17T05:55:20.397Z,1016.83
2022-09-17T05:55:55.104Z,1016.83
2022-09-17T05:56:23.990Z,1016.83
2022-09-17T05:56:56.045Z,1016.83
2022-09-17T05:57:30.428Z,1016.93
2022-09-17T05:57:51.064Z,1016.63
2022-09-17T05:58:13.343Z,1016.63
2022-09-17T05:58:47.980Z,1016.63
2022-09-17T05:59:20.378Z,1016.93
2022-09-17T05:59:52.065Z,1016.93
2022-09-17T06:00:23.909Z,1016.83
2022-09-17T06:00:56.139Z,1016.83
2022-09-17T06:01:28.145Z,1016.73
2022-09-17T06:01:56.313Z,1016.93
2022-09-17T06:02:13.086Z,1016.93
2022-09-17T06:02:48.299Z,1016.93